sensor_id;sensor_type;location;lat;lon;timestamp;P1;durP1;ratioP1;P2;durP2;ratioP2
67363;SDS011;54250;45.572;38.086;2022-08-19T00:00:48;27.75;;;14.35;;
67363;SDS011;54250;45.572;38.086;2022-08-19T00:03:15;100.75;;;18.80;;
67363;SDS011;54250;45.572;38.086;2022-08-19T00:05:42;40.50;;;16.67;;
67363;SDS011;54250;45.572;38.086;2022-08-19T00:08:08;33.83;;;16.45;;
67363;SDS011;54250;45.572;38.086;2022-08-19T00:10:34;166.55;;;18.23;;
67363;SDS011;54250;45.572;38.086;2022-08-19T00:13:00;22.00;;;13.25;;
67363;SDS011;54250;45.572;38.086;2022-08-19T00:15:26;22.02;;;11.90;;
67363;SDS011;54250;45.572;38.086;2022-08-19T00:17:52;20.45;;;11.68;;
67363;SDS011;54250;45.572;38.086;2022-08-19T00:20:21;15.30;;;11.27;;
67363;SDS011;54250;45.572;38.086;2022-08-19T00:22:47;385.23;;;20.05;;
67363;SDS011;54250;45.572;38.086;2022-08-19T00:25:14;138.63;;;17.52;;
67363;SDS011;54250;45.572;38.086;2022-08-19T00:27:41;28.17;;;15.50;;
67363;SDS011;54250;45.572;38.086;2022-08-19T00:30:07;38.85;;;16.33;;
67363;SDS011;54250;45.572;38.086;2022-08-19T00:32:35;41.95;;;17.33;;
67363;SDS011;54250;45.572;38.086;2022-08-19T00:35:02;45.70;;;21.95;;
67363;SDS011;54250;45.572;38.086;2022-08-19T00:37:29;44.05;;;21.20;;
67363;SDS011;54250;45.572;38.086;2022-08-19T00:39:55;60.05;;;23.73;;
67363;SDS011;54250;45.572;38.086;2022-08-19T00:42:21;49.05;;;22.15;;
67363;SDS011;54250;45.572;38.086;2022-08-19T00:44:48;40.80;;;19.58;;
67363;SDS011;54250;45.572;38.086;2022-08-19T00:47:15;31.73;;;16.30;;
67363;SDS011;54250;45.572;38.086;2022-08-19T00:49:46;38.53;;;17.08;;
67363;SDS011;54250;45.572;38.086;2022-08-19T00:52:19;30.45;;;15.88;;
67363;SDS011;54250;45.572;38.086;2022-08-19T00:54:50;92.97;;;19.77;;
67363;SDS011;54250;45.572;38.086;2022-08-19T00:57:18;163.70;;;19.15;;
67363;SDS011;54250;45.572;38.086;2022-08-19T00:59:51;132.73;;;21.42;;
67363;SDS011;54250;45.572;38.086;2022-08-19T01:02:19;119.20;;;21.38;;
67363;SDS011;54250;45.572;38.086;2022-08-19T01:04:45;106.22;;;19.00;;
67363;SDS011;54250;45.572;38.086;2022-08-19T01:07:12;61.17;;;18.08;;
67363;SDS011;54250;45.572;38.086;2022-08-19T01:09:38;188.68;;;19.63;;
67363;SDS011;54250;45.572;38.086;2022-08-19T01:12:04;95.50;;;17.58;;
67363;SDS011;54250;45.572;38.086;2022-08-19T01:14:31;574.80;;;23.67;;
67363;SDS011;54250;45.572;38.086;2022-08-19T01:16:57;159.40;;;18.10;;
67363;SDS011;54250;45.572;38.086;2022-08-19T01:19:30;81.18;;;14.57;;
67363;SDS011;54250;45.572;38.086;2022-08-19T01:22:02;68.75;;;14.48;;
67363;SDS011;54250;45.572;38.086;2022-08-19T01:24:33;46.17;;;13.43;;
67363;SDS011;54250;45.572;38.086;2022-08-19T01:27:03;51.90;;;13.05;;
67363;SDS011;54250;45.572;38.086;2022-08-19T01:29:31;58.67;;;13.07;;
67363;SDS011;54250;45.572;38.086;2022-08-19T01:31:57;64.80;;;13.50;;
67363;SDS011;54250;45.572;38.086;2022-08-19T01:34:25;34.90;;;11.88;;
67363;SDS011;54250;45.572;38.086;2022-08-19T01:36:51;54.28;;;10.95;;
67363;SDS011;54250;45.572;38.086;2022-08-19T01:39:23;130.20;;;14.48;;
67363;SDS011;54250;45.572;38.086;2022-08-19T01:41:50;48.95;;;11.10;;
67363;SDS011;54250;45.572;38.086;2022-08-19T01:44:19;38.42;;;11.95;;
67363;SDS011;54250;45.572;38.086;2022-08-19T01:46:49;18.27;;;10.93;;
67363;SDS011;54250;45.572;38.086;2022-08-19T01:49:17;21.17;;;11.27;;
67363;SDS011;54250;45.572;38.086;2022-08-19T01:51:45;25.80;;;10.85;;
67363;SDS011;54250;45.572;38.086;2022-08-19T01:54:12;32.15;;;10.15;;
67363;SDS011;54250;45.572;38.086;2022-08-19T01:56:40;22.77;;;10.68;;
67363;SDS011;54250;45.572;38.086;2022-08-19T01:59:09;77.70;;;11.07;;
67363;SDS011;54250;45.572;38.086;2022-08-19T02:01:37;32.45;;;9.45;;
67363;SDS011;54250;45.572;38.086;2022-08-19T02:04:03;27.30;;;10.77;;
67363;SDS011;54250;45.572;38.086;2022-08-19T02:06:31;17.73;;;9.93;;
67363;SDS011;54250;45.572;38.086;2022-08-19T02:08:58;205.60;;;14.20;;
67363;SDS011;54250;45.572;38.086;2022-08-19T02:11:26;105.93;;;16.23;;
67363;SDS011;54250;45.572;38.086;2022-08-19T02:13:57;147.68;;;12.18;;
67363;SDS011;54250;45.572;38.086;2022-08-19T02:16:23;18.20;;;10.73;;
67363;SDS011;54250;45.572;38.086;2022-08-19T02:18:50;17.58;;;10.30;;
67363;SDS011;54250;45.572;38.086;2022-08-19T02:21:17;18.73;;;10.27;;
67363;SDS011;54250;45.572;38.086;2022-08-19T02:23:45;49.35;;;10.55;;
67363;SDS011;54250;45.572;38.086;2022-08-19T02:26:12;17.27;;;9.35;;
67363;SDS011;54250;45.572;38.086;2022-08-19T02:28:39;26.38;;;8.85;;
67363;SDS011;54250;45.572;38.086;2022-08-19T02:31:12;29.70;;;8.73;;
67363;SDS011;54250;45.572;38.086;2022-08-19T02:33:40;84.07;;;10.57;;
67363;SDS011;54250;45.572;38.086;2022-08-19T02:36:07;89.00;;;11.32;;
67363;SDS011;54250;45.572;38.086;2022-08-19T02:38:34;30.25;;;9.65;;
67363;SDS011;54250;45.572;38.086;2022-08-19T02:41:03;35.28;;;9.82;;
67363;SDS011;54250;45.572;38.086;2022-08-19T02:43:32;62.10;;;11.23;;
67363;SDS011;54250;45.572;38.086;2022-08-19T02:46:10;21.55;;;9.52;;
67363;SDS011;54250;45.572;38.086;2022-08-19T02:48:53;17.13;;;9.52;;
67363;SDS011;54250;45.572;38.086;2022-08-19T02:51:25;15.10;;;9.13;;
67363;SDS011;54250;45.572;38.086;2022-08-19T02:53:55;17.23;;;9.23;;
67363;SDS011;54250;45.572;38.086;2022-08-19T02:56:22;17.05;;;9.75;;
67363;SDS011;54250;45.572;38.086;2022-08-19T02:58:50;13.43;;;8.90;;
67363;SDS011;54250;45.572;38.086;2022-08-19T03:03:55;15.15;;;9.55;;
67363;SDS011;54250;45.572;38.086;2022-08-19T03:06:22;76.03;;;9.30;;
67363;SDS011;54250;45.572;38.086;2022-08-19T03:08:49;11.68;;;7.25;;
67363;SDS011;54250;45.572;38.086;2022-08-19T03:11:22;9.23;;;6.38;;
67363;SDS011;54250;45.572;38.086;2022-08-19T03:13:49;8.23;;;5.50;;
67363;SDS011;54250;45.572;38.086;2022-08-19T03:16:17;4.22;;;3.50;;
67363;SDS011;54250;45.572;38.086;2022-08-19T03:18:44;10.15;;;2.67;;
67363;SDS011;54250;45.572;38.086;2022-08-19T03:21:21;4.47;;;2.47;;
67363;SDS011;54250;45.572;38.086;2022-08-19T03:23:55;14.68;;;2.83;;
67363;SDS011;54250;45.572;38.086;2022-08-19T03:26:22;5.55;;;1.98;;
67363;SDS011;54250;45.572;38.086;2022-08-19T03:28:48;8.00;;;2.10;;
67363;SDS011;54250;45.572;38.086;2022-08-19T03:31:16;13.18;;;3.50;;
67363;SDS011;54250;45.572;38.086;2022-08-19T03:33:44;5.70;;;2.35;;
67363;SDS011;54250;45.572;38.086;2022-08-19T03:36:15;8.90;;;2.00;;
67363;SDS011;54250;45.572;38.086;2022-08-19T03:38:44;6.80;;;1.73;;
67363;SDS011;54250;45.572;38.086;2022-08-19T03:41:14;4.10;;;2.97;;
67363;SDS011;54250;45.572;38.086;2022-08-19T03:43:42;8.55;;;3.05;;
67363;SDS011;54250;45.572;38.086;2022-08-19T03:46:13;4.97;;;2.35;;
67363;SDS011;54250;45.572;38.086;2022-08-19T03:48:42;8.95;;;2.40;;
67363;SDS011;54250;45.572;38.086;2022-08-19T03:51:28;8.45;;;2.70;;
67363;SDS011;54250;45.572;38.086;2022-08-19T03:53:58;5.45;;;3.47;;
67363;SDS011;54250;45.572;38.086;2022-08-19T03:56:26;11.55;;;3.92;;
67363;SDS011;54250;45.572;38.086;2022-08-19T03:58:53;14.02;;;4.68;;
67363;SDS011;54250;45.572;38.086;2022-08-19T04:01:20;8.18;;;4.18;;
67363;SDS011;54250;45.572;38.086;2022-08-19T04:03:48;9.05;;;4.15;;
67363;SDS011;54250;45.572;38.086;2022-08-19T04:06:18;12.38;;;4.10;;
67363;SDS011;54250;45.572;38.086;2022-08-19T04:08:47;10.70;;;5.13;;
67363;SDS011;54250;45.572;38.086;2022-08-19T04:11:16;10.48;;;5.25;;
67363;SDS011;54250;45.572;38.086;2022-08-19T04:13:45;12.38;;;6.43;;
67363;SDS011;54250;45.572;38.086;2022-08-19T04:16:11;9.60;;;5.90;;
67363;SDS011;54250;45.572;38.086;2022-08-19T04:18:38;8.43;;;6.45;;
67363;SDS011;54250;45.572;38.086;2022-08-19T04:21:05;9.48;;;6.30;;
67363;SDS011;54250;45.572;38.086;2022-08-19T04:23:32;8.15;;;5.72;;
67363;SDS011;54250;45.572;38.086;2022-08-19T04:26:01;9.93;;;5.65;;
67363;SDS011;54250;45.572;38.086;2022-08-19T04:28:27;10.55;;;5.45;;
67363;SDS011;54250;45.572;38.086;2022-08-19T04:30:54;7.32;;;4.43;;
67363;SDS011;54250;45.572;38.086;2022-08-19T04:33:22;15.38;;;4.85;;
67363;SDS011;54250;45.572;38.086;2022-08-19T04:35:51;12.80;;;6.97;;
67363;SDS011;54250;45.572;38.086;2022-08-19T04:38:19;21.67;;;5.15;;
67363;SDS011;54250;45.572;38.086;2022-08-19T04:40:48;7.70;;;4.90;;
67363;SDS011;54250;45.572;38.086;2022-08-19T04:43:35;9.23;;;4.47;;
67363;SDS011;54250;45.572;38.086;2022-08-19T04:46:06;11.10;;;4.97;;
67363;SDS011;54250;45.572;38.086;2022-08-19T04:48:37;9.75;;;5.03;;
67363;SDS011;54250;45.572;38.086;2022-08-19T04:51:08;10.85;;;4.88;;
67363;SDS011;54250;45.572;38.086;2022-08-19T04:53:39;12.23;;;5.05;;
67363;SDS011;54250;45.572;38.086;2022-08-19T04:56:10;10.20;;;5.10;;
67363;SDS011;54250;45.572;38.086;2022-08-19T04:58:39;10.73;;;5.30;;
67363;SDS011;54250;45.572;38.086;2022-08-19T05:01:21;9.32;;;5.00;;
67363;SDS011;54250;45.572;38.086;2022-08-19T05:03:49;7.68;;;5.32;;
67363;SDS011;54250;45.572;38.086;2022-08-19T05:06:16;12.70;;;5.20;;
67363;SDS011;54250;45.572;38.086;2022-08-19T05:08:43;12.45;;;5.57;;
67363;SDS011;54250;45.572;38.086;2022-08-19T05:11:11;12.88;;;5.28;;
67363;SDS011;54250;45.572;38.086;2022-08-19T05:13:38;10.43;;;5.20;;
67363;SDS011;54250;45.572;38.086;2022-08-19T05:16:04;13.48;;;5.53;;
67363;SDS011;54250;45.572;38.086;2022-08-19T05:18:31;15.73;;;6.80;;
67363;SDS011;54250;45.572;38.086;2022-08-19T05:21:16;13.07;;;4.90;;
67363;SDS011;54250;45.572;38.086;2022-08-19T05:24:04;8.35;;;5.00;;
67363;SDS011;54250;45.572;38.086;2022-08-19T05:26:35;12.13;;;5.00;;
67363;SDS011;54250;45.572;38.086;2022-08-19T05:29:02;14.73;;;5.25;;
67363;SDS011;54250;45.572;38.086;2022-08-19T05:31:29;9.48;;;5.13;;
67363;SDS011;54250;45.572;38.086;2022-08-19T05:33:55;15.75;;;5.80;;
67363;SDS011;54250;45.572;38.086;2022-08-19T05:36:27;18.00;;;5.93;;
67363;SDS011;54250;45.572;38.086;2022-08-19T05:38:58;13.73;;;5.53;;
67363;SDS011;54250;45.572;38.086;2022-08-19T05:41:24;13.25;;;5.75;;
67363;SDS011;54250;45.572;38.086;2022-08-19T05:43:55;15.18;;;5.85;;
67363;SDS011;54250;45.572;38.086;2022-08-19T05:46:21;10.93;;;6.82;;
67363;SDS011;54250;45.572;38.086;2022-08-19T05:48:48;17.40;;;6.03;;
67363;SDS011;54250;45.572;38.086;2022-08-19T05:51:15;13.60;;;5.95;;
67363;SDS011;54250;45.572;38.086;2022-08-19T05:53:41;12.23;;;5.95;;
67363;SDS011;54250;45.572;38.086;2022-08-19T05:56:11;11.50;;;6.07;;
67363;SDS011;54250;45.572;38.086;2022-08-19T05:58:43;12.00;;;6.90;;
67363;SDS011;54250;45.572;38.086;2022-08-19T06:01:12;16.20;;;5.93;;
67363;SDS011;54250;45.572;38.086;2022-08-19T06:03:40;10.07;;;6.20;;
67363;SDS011;54250;45.572;38.086;2022-08-19T06:06:07;9.05;;;6.45;;
67363;SDS011;54250;45.572;38.086;2022-08-19T06:08:36;23.70;;;6.63;;
67363;SDS011;54250;45.572;38.086;2022-08-19T06:14:23;18.13;;;6.10;;
67363;SDS011;54250;45.572;38.086;2022-08-19T06:16:50;12.23;;;6.38;;
67363;SDS011;54250;45.572;38.086;2022-08-19T06:19:20;12.85;;;6.38;;
67363;SDS011;54250;45.572;38.086;2022-08-19T06:21:50;14.02;;;5.72;;
67363;SDS011;54250;45.572;38.086;2022-08-19T06:24:18;11.55;;;6.35;;
67363;SDS011;54250;45.572;38.086;2022-08-19T06:26:47;13.02;;;5.68;;
67363;SDS011;54250;45.572;38.086;2022-08-19T06:29:15;20.45;;;5.25;;
67363;SDS011;54250;45.572;38.086;2022-08-19T06:31:44;10.85;;;5.28;;
67363;SDS011;54250;45.572;38.086;2022-08-19T06:34:12;15.07;;;7.38;;
67363;SDS011;54250;45.572;38.086;2022-08-19T06:36:41;11.40;;;6.03;;
67363;SDS011;54250;45.572;38.086;2022-08-19T06:39:16;8.35;;;5.30;;
67363;SDS011;54250;45.572;38.086;2022-08-19T06:41:46;22.13;;;5.90;;
67363;SDS011;54250;45.572;38.086;2022-08-19T06:44:16;14.68;;;4.82;;
67363;SDS011;54250;45.572;38.086;2022-08-19T06:46:46;12.70;;;5.28;;
67363;SDS011;54250;45.572;38.086;2022-08-19T06:49:15;10.48;;;4.97;;
67363;SDS011;54250;45.572;38.086;2022-08-19T06:51:43;19.80;;;5.75;;
67363;SDS011;54250;45.572;38.086;2022-08-19T06:54:13;13.05;;;5.55;;
67363;SDS011;54250;45.572;38.086;2022-08-19T06:56:41;16.10;;;5.10;;
67363;SDS011;54250;45.572;38.086;2022-08-19T06:59:10;14.70;;;4.68;;
67363;SDS011;54250;45.572;38.086;2022-08-19T07:01:39;9.65;;;4.53;;
67363;SDS011;54250;45.572;38.086;2022-08-19T07:04:13;14.68;;;4.50;;
67363;SDS011;54250;45.572;38.086;2022-08-19T07:06:41;11.73;;;4.53;;
67363;SDS011;54250;45.572;38.086;2022-08-19T07:09:09;15.90;;;5.35;;
67363;SDS011;54250;45.572;38.086;2022-08-19T07:11:36;13.15;;;5.05;;
67363;SDS011;54250;45.572;38.086;2022-08-19T07:14:03;11.18;;;4.72;;
67363;SDS011;54250;45.572;38.086;2022-08-19T07:16:30;13.68;;;5.13;;
67363;SDS011;54250;45.572;38.086;2022-08-19T07:18:57;10.43;;;4.53;;
67363;SDS011;54250;45.572;38.086;2022-08-19T07:21:25;10.73;;;4.53;;
67363;SDS011;54250;45.572;38.086;2022-08-19T07:23:56;26.23;;;5.00;;
67363;SDS011;54250;45.572;38.086;2022-08-19T07:26:29;11.48;;;4.15;;
67363;SDS011;54250;45.572;38.086;2022-08-19T07:28:57;14.88;;;4.43;;
67363;SDS011;54250;45.572;38.086;2022-08-19T07:31:27;10.30;;;4.80;;
67363;SDS011;54250;45.572;38.086;2022-08-19T07:33:54;11.73;;;4.78;;
67363;SDS011;54250;45.572;38.086;2022-08-19T07:36:26;13.25;;;4.32;;
67363;SDS011;54250;45.572;38.086;2022-08-19T07:38:56;6.65;;;4.28;;
67363;SDS011;54250;45.572;38.086;2022-08-19T07:41:23;7.10;;;4.13;;
67363;SDS011;54250;45.572;38.086;2022-08-19T07:43:51;12.90;;;4.47;;
67363;SDS011;54250;45.572;38.086;2022-08-19T07:46:18;23.10;;;4.93;;
67363;SDS011;54250;45.572;38.086;2022-08-19T07:48:47;11.10;;;3.95;;
67363;SDS011;54250;45.572;38.086;2022-08-19T07:51:17;10.55;;;4.07;;
67363;SDS011;54250;45.572;38.086;2022-08-19T07:53:45;19.35;;;4.45;;
67363;SDS011;54250;45.572;38.086;2022-08-19T07:56:13;7.70;;;4.00;;
67363;SDS011;54250;45.572;38.086;2022-08-19T07:58:42;12.35;;;4.53;;
67363;SDS011;54250;45.572;38.086;2022-08-19T08:01:28;8.55;;;3.97;;
67363;SDS011;54250;45.572;38.086;2022-08-19T08:03:55;19.60;;;4.30;;
67363;SDS011;54250;45.572;38.086;2022-08-19T08:06:41;7.32;;;3.35;;
67363;SDS011;54250;45.572;38.086;2022-08-19T08:09:29;8.50;;;3.45;;
67363;SDS011;54250;45.572;38.086;2022-08-19T08:12:01;8.30;;;3.88;;
67363;SDS011;54250;45.572;38.086;2022-08-19T08:14:33;9.02;;;3.55;;
67363;SDS011;54250;45.572;38.086;2022-08-19T08:17:05;13.38;;;3.80;;
67363;SDS011;54250;45.572;38.086;2022-08-19T08:19:32;8.55;;;3.95;;
67363;SDS011;54250;45.572;38.086;2022-08-19T08:21:59;9.45;;;3.45;;
67363;SDS011;54250;45.572;38.086;2022-08-19T08:24:27;11.70;;;3.83;;
67363;SDS011;54250;45.572;38.086;2022-08-19T08:26:56;10.35;;;3.67;;
67363;SDS011;54250;45.572;38.086;2022-08-19T08:29:24;11.82;;;4.07;;
67363;SDS011;54250;45.572;38.086;2022-08-19T08:31:54;10.52;;;4.05;;
67363;SDS011;54250;45.572;38.086;2022-08-19T08:34:21;13.27;;;3.92;;
67363;SDS011;54250;45.572;38.086;2022-08-19T08:36:48;9.93;;;3.63;;
67363;SDS011;54250;45.572;38.086;2022-08-19T08:39:16;23.30;;;4.30;;
67363;SDS011;54250;45.572;38.086;2022-08-19T08:41:47;15.02;;;4.38;;
67363;SDS011;54250;45.572;38.086;2022-08-19T08:44:23;7.60;;;3.85;;
67363;SDS011;54250;45.572;38.086;2022-08-19T08:47:08;10.85;;;4.40;;
67363;SDS011;54250;45.572;38.086;2022-08-19T08:49:45;6.88;;;3.67;;
67363;SDS011;54250;45.572;38.086;2022-08-19T08:52:24;5.95;;;3.80;;
67363;SDS011;54250;45.572;38.086;2022-08-19T08:54:57;6.72;;;3.80;;
67363;SDS011;54250;45.572;38.086;2022-08-19T08:57:30;9.52;;;4.18;;
67363;SDS011;54250;45.572;38.086;2022-08-19T09:00:05;14.57;;;3.85;;
67363;SDS011;54250;45.572;38.086;2022-08-19T09:02:35;7.57;;;3.92;;
67363;SDS011;54250;45.572;38.086;2022-08-19T09:05:02;10.23;;;4.40;;
67363;SDS011;54250;45.572;38.086;2022-08-19T09:13:05;10.57;;;3.78;;
67363;SDS011;54250;45.572;38.086;2022-08-19T09:16:05;11.73;;;3.97;;
67363;SDS011;54250;45.572;38.086;2022-08-19T09:18:49;17.25;;;3.83;;
67363;SDS011;54250;45.572;38.086;2022-08-19T09:21:19;7.35;;;3.60;;
67363;SDS011;54250;45.572;38.086;2022-08-19T09:23:48;10.93;;;3.78;;
67363;SDS011;54250;45.572;38.086;2022-08-19T09:26:16;10.48;;;3.53;;
67363;SDS011;54250;45.572;38.086;2022-08-19T09:28:46;12.93;;;4.28;;
67363;SDS011;54250;45.572;38.086;2022-08-19T09:31:14;14.45;;;4.07;;
67363;SDS011;54250;45.572;38.086;2022-08-19T09:33:45;6.32;;;3.33;;
67363;SDS011;54250;45.572;38.086;2022-08-19T09:36:13;7.25;;;3.63;;
67363;SDS011;54250;45.572;38.086;2022-08-19T09:38:40;9.55;;;3.60;;
67363;SDS011;54250;45.572;38.086;2022-08-19T09:41:09;5.15;;;3.55;;
67363;SDS011;54250;45.572;38.086;2022-08-19T09:43:39;8.95;;;3.03;;
67363;SDS011;54250;45.572;38.086;2022-08-19T09:46:07;5.57;;;3.17;;
67363;SDS011;54250;45.572;38.086;2022-08-19T09:48:40;4.50;;;2.83;;
67363;SDS011;54250;45.572;38.086;2022-08-19T09:51:12;8.63;;;2.97;;
67363;SDS011;54250;45.572;38.086;2022-08-19T09:53:46;6.35;;;2.90;;
67363;SDS011;54250;45.572;38.086;2022-08-19T09:56:15;5.05;;;2.85;;
67363;SDS011;54250;45.572;38.086;2022-08-19T09:58:44;10.13;;;3.03;;
67363;SDS011;54250;45.572;38.086;2022-08-19T10:01:16;7.53;;;3.40;;
67363;SDS011;54250;45.572;38.086;2022-08-19T10:03:51;6.25;;;3.08;;
67363;SDS011;54250;45.572;38.086;2022-08-19T10:06:20;6.10;;;2.90;;
67363;SDS011;54250;45.572;38.086;2022-08-19T10:08:48;9.27;;;3.88;;
67363;SDS011;54250;45.572;38.086;2022-08-19T10:11:15;5.03;;;2.40;;
67363;SDS011;54250;45.572;38.086;2022-08-19T10:13:43;6.40;;;2.85;;
67363;SDS011;54250;45.572;38.086;2022-08-19T10:16:19;9.13;;;2.70;;
67363;SDS011;54250;45.572;38.086;2022-08-19T10:18:48;6.28;;;2.58;;
67363;SDS011;54250;45.572;38.086;2022-08-19T10:23:43;4.68;;;2.65;;
67363;SDS011;54250;45.572;38.086;2022-08-19T10:26:12;14.35;;;3.28;;
67363;SDS011;54250;45.572;38.086;2022-08-19T10:28:41;8.98;;;2.75;;
67363;SDS011;54250;45.572;38.086;2022-08-19T10:31:08;7.03;;;3.08;;
67363;SDS011;54250;45.572;38.086;2022-08-19T10:33:36;10.75;;;3.25;;
67363;SDS011;54250;45.572;38.086;2022-08-19T10:36:05;10.27;;;3.05;;
67363;SDS011;54250;45.572;38.086;2022-08-19T10:41:10;5.57;;;2.90;;
67363;SDS011;54250;45.572;38.086;2022-08-19T10:43:38;13.55;;;4.10;;
67363;SDS011;54250;45.572;38.086;2022-08-19T10:46:06;12.57;;;4.68;;
67363;SDS011;54250;45.572;38.086;2022-08-19T10:48:34;11.20;;;4.93;;
67363;SDS011;54250;45.572;38.086;2022-08-19T10:51:00;17.27;;;6.55;;
67363;SDS011;54250;45.572;38.086;2022-08-19T10:53:46;15.77;;;5.60;;
67363;SDS011;54250;45.572;38.086;2022-08-19T10:56:12;7.60;;;4.88;;
67363;SDS011;54250;45.572;38.086;2022-08-19T10:58:57;11.45;;;5.22;;
67363;SDS011;54250;45.572;38.086;2022-08-19T11:01:24;11.63;;;4.13;;
67363;SDS011;54250;45.572;38.086;2022-08-19T11:03:51;31.98;;;4.60;;
67363;SDS011;54250;45.572;38.086;2022-08-19T11:06:18;21.17;;;4.88;;
67363;SDS011;54250;45.572;38.086;2022-08-19T11:08:45;14.52;;;5.10;;
67363;SDS011;54250;45.572;38.086;2022-08-19T11:11:12;25.08;;;4.63;;
67363;SDS011;54250;45.572;38.086;2022-08-19T11:13:39;22.90;;;5.28;;
67363;SDS011;54250;45.572;38.086;2022-08-19T11:16:07;17.73;;;6.13;;
67363;SDS011;54250;45.572;38.086;2022-08-19T11:18:42;35.25;;;4.72;;
67363;SDS011;54250;45.572;38.086;2022-08-19T11:21:43;20.77;;;4.95;;
67363;SDS011;54250;45.572;38.086;2022-08-19T11:24:10;19.45;;;5.22;;
67363;SDS011;54250;45.572;38.086;2022-08-19T11:26:40;22.25;;;5.30;;
67363;SDS011;54250;45.572;38.086;2022-08-19T11:29:09;13.05;;;4.57;;
67363;SDS011;54250;45.572;38.086;2022-08-19T11:31:38;14.52;;;5.03;;
67363;SDS011;54250;45.572;38.086;2022-08-19T11:34:08;10.05;;;3.90;;
67363;SDS011;54250;45.572;38.086;2022-08-19T11:36:37;12.10;;;4.13;;
67363;SDS011;54250;45.572;38.086;2022-08-19T11:39:05;16.33;;;5.07;;
67363;SDS011;54250;45.572;38.086;2022-08-19T11:41:33;9.57;;;3.70;;
67363;SDS011;54250;45.572;38.086;2022-08-19T11:43:59;8.40;;;4.25;;
67363;SDS011;54250;45.572;38.086;2022-08-19T11:46:28;31.17;;;5.82;;
67363;SDS011;54250;45.572;38.086;2022-08-19T11:48:58;52.42;;;6.32;;
67363;SDS011;54250;45.572;38.086;2022-08-19T11:51:26;12.52;;;3.97;;
67363;SDS011;54250;45.572;38.086;2022-08-19T11:53:53;8.88;;;3.63;;
67363;SDS011;54250;45.572;38.086;2022-08-19T11:56:21;17.35;;;3.58;;
67363;SDS011;54250;45.572;38.086;2022-08-19T11:58:49;12.35;;;4.57;;
67363;SDS011;54250;45.572;38.086;2022-08-19T12:01:17;9.23;;;3.70;;
67363;SDS011;54250;45.572;38.086;2022-08-19T12:03:45;10.15;;;3.10;;
67363;SDS011;54250;45.572;38.086;2022-08-19T12:06:14;4.70;;;2.10;;
67363;SDS011;54250;45.572;38.086;2022-08-19T12:08:45;14.23;;;2.58;;
67363;SDS011;54250;45.572;38.086;2022-08-19T12:11:12;4.88;;;2.03;;
67363;SDS011;54250;45.572;38.086;2022-08-19T12:13:39;4.03;;;2.30;;
67363;SDS011;54250;45.572;38.086;2022-08-19T12:16:10;8.20;;;2.80;;
67363;SDS011;54250;45.572;38.086;2022-08-19T12:18:38;12.07;;;2.50;;
67363;SDS011;54250;45.572;38.086;2022-08-19T12:21:09;4.85;;;2.70;;
67363;SDS011;54250;45.572;38.086;2022-08-19T12:23:36;6.40;;;2.67;;
67363;SDS011;54250;45.572;38.086;2022-08-19T12:26:03;6.25;;;2.75;;
67363;SDS011;54250;45.572;38.086;2022-08-19T12:28:30;18.80;;;4.72;;
67363;SDS011;54250;45.572;38.086;2022-08-19T12:30:56;7.63;;;3.30;;
67363;SDS011;54250;45.572;38.086;2022-08-19T12:33:23;7.15;;;3.20;;
67363;SDS011;54250;45.572;38.086;2022-08-19T12:35:53;16.67;;;3.42;;
67363;SDS011;54250;45.572;38.086;2022-08-19T12:38:19;13.48;;;3.50;;
67363;SDS011;54250;45.572;38.086;2022-08-19T12:40:49;9.32;;;3.33;;
67363;SDS011;54250;45.572;38.086;2022-08-19T12:43:17;6.38;;;2.67;;
67363;SDS011;54250;45.572;38.086;2022-08-19T12:45:45;5.85;;;2.45;;
67363;SDS011;54250;45.572;38.086;2022-08-19T12:48:11;5.68;;;2.40;;
67363;SDS011;54250;45.572;38.086;2022-08-19T12:50:41;6.75;;;2.33;;
67363;SDS011;54250;45.572;38.086;2022-08-19T12:53:11;6.33;;;2.90;;
67363;SDS011;54250;45.572;38.086;2022-08-19T12:55:37;8.60;;;3.08;;
67363;SDS011;54250;45.572;38.086;2022-08-19T12:58:03;3.25;;;2.42;;
67363;SDS011;54250;45.572;38.086;2022-08-19T13:00:30;3.05;;;2.05;;
67363;SDS011;54250;45.572;38.086;2022-08-19T13:02:58;9.68;;;2.53;;
67363;SDS011;54250;45.572;38.086;2022-08-19T13:05:26;7.70;;;2.90;;
67363;SDS011;54250;45.572;38.086;2022-08-19T13:07:55;9.20;;;3.38;;
67363;SDS011;54250;45.572;38.086;2022-08-19T13:10:32;7.38;;;3.28;;
67363;SDS011;54250;45.572;38.086;2022-08-19T13:13:01;5.18;;;3.25;;
67363;SDS011;54250;45.572;38.086;2022-08-19T13:15:35;8.05;;;2.92;;
67363;SDS011;54250;45.572;38.086;2022-08-19T13:20:32;7.63;;;3.25;;
67363;SDS011;54250;45.572;38.086;2022-08-19T13:22:58;7.97;;;3.13;;
67363;SDS011;54250;45.572;38.086;2022-08-19T13:25:24;12.43;;;3.42;;
67363;SDS011;54250;45.572;38.086;2022-08-19T13:27:50;6.22;;;2.85;;
67363;SDS011;54250;45.572;38.086;2022-08-19T13:30:18;5.97;;;3.17;;
67363;SDS011;54250;45.572;38.086;2022-08-19T13:33:04;8.40;;;2.60;;
67363;SDS011;54250;45.572;38.086;2022-08-19T13:35:46;10.02;;;3.03;;
67363;SDS011;54250;45.572;38.086;2022-08-19T13:38:16;6.35;;;2.30;;
67363;SDS011;54250;45.572;38.086;2022-08-19T13:40:47;9.32;;;2.45;;
67363;SDS011;54250;45.572;38.086;2022-08-19T13:43:15;4.68;;;2.40;;
67363;SDS011;54250;45.572;38.086;2022-08-19T13:45:42;7.15;;;2.65;;
67363;SDS011;54250;45.572;38.086;2022-08-19T13:48:09;6.38;;;3.50;;
67363;SDS011;54250;45.572;38.086;2022-08-19T13:50:38;11.65;;;3.92;;
67363;SDS011;54250;45.572;38.086;2022-08-19T13:53:07;12.30;;;7.63;;
67363;SDS011;54250;45.572;38.086;2022-08-19T13:55:36;13.88;;;8.00;;
67363;SDS011;54250;45.572;38.086;2022-08-19T13:58:04;8.35;;;6.22;;
67363;SDS011;54250;45.572;38.086;2022-08-19T14:00:31;8.13;;;5.55;;
67363;SDS011;54250;45.572;38.086;2022-08-19T14:03:02;5.68;;;2.60;;
67363;SDS011;54250;45.572;38.086;2022-08-19T14:05:29;5.55;;;2.40;;
67363;SDS011;54250;45.572;38.086;2022-08-19T14:07:56;6.47;;;2.40;;
67363;SDS011;54250;45.572;38.086;2022-08-19T14:10:23;3.38;;;2.25;;
67363;SDS011;54250;45.572;38.086;2022-08-19T14:12:57;4.95;;;2.08;;
67363;SDS011;54250;45.572;38.086;2022-08-19T14:15:25;5.03;;;2.20;;
67363;SDS011;54250;45.572;38.086;2022-08-19T14:17:52;8.65;;;2.50;;
67363;SDS011;54250;45.572;38.086;2022-08-19T14:20:19;6.13;;;2.70;;
67363;SDS011;54250;45.572;38.086;2022-08-19T14:22:46;5.15;;;2.05;;
67363;SDS011;54250;45.572;38.086;2022-08-19T14:25:14;4.60;;;2.00;;
67363;SDS011;54250;45.572;38.086;2022-08-19T14:27:45;6.95;;;2.15;;
67363;SDS011;54250;45.572;38.086;2022-08-19T14:30:13;8.43;;;2.50;;
67363;SDS011;54250;45.572;38.086;2022-08-19T14:32:41;5.43;;;2.13;;
67363;SDS011;54250;45.572;38.086;2022-08-19T14:35:08;5.97;;;2.30;;
67363;SDS011;54250;45.572;38.086;2022-08-19T14:37:35;14.88;;;2.05;;
67363;SDS011;54250;45.572;38.086;2022-08-19T14:40:02;6.43;;;2.28;;
67363;SDS011;54250;45.572;38.086;2022-08-19T14:42:30;4.93;;;2.58;;
67363;SDS011;54250;45.572;38.086;2022-08-19T14:44:59;7.38;;;2.45;;
67363;SDS011;54250;45.572;38.086;2022-08-19T14:47:26;6.57;;;2.95;;
67363;SDS011;54250;45.572;38.086;2022-08-19T14:49:53;6.43;;;2.15;;
67363;SDS011;54250;45.572;38.086;2022-08-19T14:52:19;8.63;;;2.10;;
67363;SDS011;54250;45.572;38.086;2022-08-19T14:54:45;10.02;;;2.20;;